Time;durP1;ratioP1;P1;durP2;ratioP2;P2;SDS_P1;SDS_P2;PMS_P1;PMS_P2;Temp;Humidity;BMP_temperature;BMP_pressure;BME280_temperature;BME280_humidity;BME280_pressure;Samples;Min_cycle;Max_cycle;Signal;HPM_P1;HPM_P2
2022/10/27 00:02:18;;;;;;;5.40;2.53;;;;;;;13.42;100.00;102005.75;5069514;28;20463;-64
2022/10/27 00:04:43;;;;;;;5.35;2.42;;;;;;;13.39;100.00;102013.44;5055624;28;20024;-64
2022/10/27 00:07:08;;;;;;;8.27;3.20;;;;;;;13.35;100.00;102006.34;5070289;28;20056;-64
2022/10/27 00:09:34;;;;;;;4.78;2.70;;;;;;;13.31;100.00;102010.53;5067212;28;20067;-64
2022/10/27 00:11:59;;;;;;;5.93;2.75;;;;;;;13.27;100.00;102013.88;5049586;28;20036;-64
2022/10/27 00:14:25;;;;;;;6.22;2.75;;;;;;;13.24;100.00;102013.72;5066942;28;20047;-64
2022/10/27 00:16:54;;;;;;;6.20;2.65;;;;;;;13.19;100.00;102010.94;5069281;28;20492;-64
2022/10/27 00:19:21;;;;;;;3.60;2.08;;;;;;;13.17;100.00;102014.31;5069337;28;20227;-64
2022/10/27 00:21:47;;;;;;;5.15;2.30;;;;;;;13.11;100.00;102007.16;5069266;28;20207;-65
2022/10/27 00:24:12;;;;;;;5.97;2.78;;;;;;;13.08;100.00;102012.22;5068802;28;20481;-65
2022/10/27 00:26:37;;;;;;;7.25;3.20;;;;;;;13.04;100.00;102012.94;5069070;28;20082;-64
2022/10/27 00:29:03;;;;;;;7.15;4.18;;;;;;;13.01;100.00;102015.41;5070149;28;20103;-64
2022/10/27 00:31:28;;;;;;;12.45;7.28;;;;;;;12.99;100.00;102019.69;5063525;28;20013;-64
2022/10/27 00:33:53;;;;;;;14.80;7.57;;;;;;;12.93;100.00;102015.97;5058813;28;20032;-64
2022/10/27 00:36:23;;;;;;;13.13;7.95;;;;;;;12.89;100.00;102016.69;5069189;28;20019;-64
2022/10/27 00:38:52;;;;;;;11.25;6.57;;;;;;;12.87;100.00;102017.44;5069767;28;20013;-64
2022/10/27 00:41:36;;;;;;;12.68;6.50;;;;;;;12.84;100.00;102018.22;5068949;28;20286;-64
2022/10/27 00:44:36;;;;;;;8.18;5.88;;;;;;;12.81;100.00;102023.28;5068751;28;20388;-64
2022/10/27 00:47:39;;;;;;;9.35;5.25;;;;;;;12.76;100.00;102024.78;5068733;28;20024;-64
2022/10/27 00:50:14;;;;;;;6.88;5.05;;;;;;;12.72;100.00;102035.06;5005901;28;20125;-64
2022/10/27 00:52:44;;;;;;;8.88;4.53;;;;;;;12.70;100.00;102030.66;5006665;28;20029;-64
2022/10/27 00:55:19;;;;;;;8.43;3.95;;;;;;;12.67;100.00;102036.59;5040433;28;20032;-64
2022/10/27 00:57:47;;;;;;;8.00;3.90;;;;;;;12.67;100.00;102030.50;5068164;28;20043;-64
2022/10/27 01:00:13;;;;;;;9.70;3.88;;;;;;;12.66;100.00;102027.03;5068367;28;20794;-64
2022/10/27 01:02:39;;;;;;;6.40;4.35;;;;;;;12.65;100.00;102027.84;5068754;28;20279;-64
2022/10/27 01:05:26;;;;;;;8.38;3.83;;;;;;;12.66;100.00;102029.63;5068710;28;20067;-64
2022/10/27 01:07:55;;;;;;;7.18;4.13;;;;;;;12.65;100.00;102030.44;5065474;28;20057;-64
2022/10/27 01:10:21;;;;;;;7.93;3.88;;;;;;;12.66;100.00;102028.72;5056849;28;20036;-64
2022/10/27 01:12:47;;;;;;;5.60;3.60;;;;;;;12.66;100.00;102029.63;5066360;28;20436;-64
2022/10/27 01:15:14;;;;;;;7.55;4.05;;;;;;;12.67;100.00;102033.09;5068368;28;20048;-64
2022/10/27 01:18:01;;;;;;;8.15;3.42;;;;;;;12.67;100.00;102036.59;5062550;28;20523;-64
2022/10/27 01:20:32;;;;;;;7.70;3.60;;;;;;;12.69;100.00;102036.66;5068440;28;20028;-64
2022/10/27 01:22:57;;;;;;;;;;;;;;;12.67;100.00;102041.81;5068596;28;20024;-64
2022/10/27 01:25:41;;;;;;;6.18;3.40;;;;;;;12.68;100.00;102043.56;5068186;28;19908;-64
2022/10/27 01:28:22;;;;;;;8.05;3.47;;;;;;;12.70;100.00;102046.25;5053724;28;20025;-64
2022/10/27 01:30:59;;;;;;;6.28;3.53;;;;;;;12.71;100.00;102043.72;5068214;28;20484;-64
2022/10/27 01:33:33;;;;;;;8.80;3.72;;;;;;;12.70;100.00;102041.91;5068095;28;20434;-64
2022/10/27 01:36:04;;;;;;;8.88;4.13;;;;;;;12.72;100.00;102045.47;5067719;28;20028;-64
2022/10/27 01:38:51;;;;;;;6.80;3.72;;;;;;;12.73;100.00;102039.47;5053571;28;20465;-64
2022/10/27 01:41:24;;;;;;;5.10;3.70;;;;;;;12.73;100.00;102042.06;5056255;28;20025;-64
2022/10/27 01:43:53;;;;;;;6.88;3.92;;;;;;;12.72;100.00;102042.88;5065901;28;20809;-64
2022/10/27 01:46:19;;;;;;;5.38;3.67;;;;;;;12.74;100.00;102045.53;5067417;28;20036;-64
2022/10/27 01:48:45;;;;;;;8.05;3.72;;;;;;;12.73;100.00;102047.28;5065421;28;20105;-64
2022/10/27 01:51:12;;;;;;;7.90;3.83;;;;;;;12.73;100.00;102039.47;5047927;28;20060;-64
2022/10/27 01:53:43;;;;;;;7.68;3.53;;;;;;;12.73;100.00;102042.06;5061276;28;20107;-64
2022/10/27 01:56:24;;;;;;;5.43;3.78;;;;;;;12.73;100.00;102042.06;5054720;28;20048;-64
2022/10/27 01:59:00;;;;;;;;;;;;;;;12.73;100.00;102044.66;5066373;28;20024;-64
2022/10/27 02:01:42;;;;;;;10.63;3.92;;;;;;;12.73;100.00;102036.88;5060167;28;19920;-64
2022/10/27 02:04:38;;;;;;;9.52;3.92;;;;;;;12.72;100.00;102044.59;5064752;28;20052;-64
2022/10/27 02:07:32;;;;;;;5.35;3.88;;;;;;;12.70;100.00;102035.84;5066896;28;20072;-64
2022/10/27 02:10:20;;;;;;;7.72;4.65;;;;;;;12.69;100.00;102029.75;5067115;28;20024;-64
2022/10/27 02:12:46;;;;;;;8.65;3.95;;;;;;;12.69;100.00;102036.66;5056545;28;20078;-64
2022/10/27 02:15:38;;;;;;;6.70;3.80;;;;;;;12.67;100.00;102031.41;5056484;28;20064;-64
2022/10/27 02:18:07;;;;;;;14.48;4.53;;;;;;;12.67;100.00;102039.19;5067793;28;20115;-64
2022/10/27 02:20:39;;;;;;;8.25;3.80;;;;;;;12.67;100.00;102030.50;5066890;28;20036;-64
2022/10/27 02:23:07;;;;;;;6.22;4.40;;;;;;;12.66;100.00;102024.44;5065566;28;20587;-64
2022/10/27 02:25:55;;;;;;;6.78;4.65;;;;;;;12.64;100.00;102028.66;5052437;28;20074;-64
2022/10/27 02:28:27;;;;;;;6.50;3.72;;;;;;;12.65;100.00;102022.63;5054688;28;20025;-64
2022/10/27 02:30:57;;;;;;;4.63;3.70;;;;;;;12.62;100.00;102012.13;5066288;28;20504;-64
2022/10/27 02:33:23;;;;;;;6.55;4.13;;;;;;;12.61;100.00;102018.13;5066798;28;20486;-64
2022/10/27 02:35:48;;;;;;;6.55;4.03;;;;;;;12.60;100.00;102024.16;5067185;28;20028;-64
2022/10/27 02:38:14;;;;;;;8.27;4.32;;;;;;;12.59;100.00;102022.38;5066893;28;20381;-64
2022/10/27 02:40:39;;;;;;;7.65;4.43;;;;;;;12.56;100.00;102022.25;5052666;28;20055;-64
2022/10/27 02:43:04;;;;;;;8.77;3.88;;;;;;;12.54;100.00;102019.56;5074983;28;20030;-64
2022/10/27 02:45:30;;;;;;;10.90;5.13;;;;;;;12.53;100.00;102022.13;5073771;28;20029;-64
2022/10/27 02:47:55;;;;;;;6.90;4.28;;;;;;;12.51;100.00;102014.25;5072854;28;20498;-64
2022/10/27 02:50:20;;;;;;;7.07;4.40;;;;;;;12.51;100.00;102013.34;5079968;28;20031;-64
2022/10/27 02:52:45;;;;;;;7.05;4.38;;;;;;;12.48;100.00;102015.00;5073202;28;20031;-64
2022/10/27 02:55:11;;;;;;;8.77;4.47;;;;;;;12.47;100.00;102013.22;5082043;28;20025;-64
2022/10/27 02:57:36;;;;;;;8.50;4.68;;;;;;;12.44;100.00;102007.91;5084838;28;20028;-64
2022/10/27 03:00:02;;;;;;;7.05;4.35;;;;;;;12.42;100.00;102004.34;5071155;28;20440;-64
2022/10/27 03:02:27;;;;;;;6.90;4.03;;;;;;;12.41;100.00;102007.75;5070313;28;20059;-64
2022/10/27 03:04:53;;;;;;;7.70;4.35;;;;;;;12.39;100.00;102004.22;5084661;28;20058;-64
2022/10/27 03:07:19;;;;;;;8.05;4.50;;;;;;;12.38;100.00;102005.03;5071304;28;20464;-64
2022/10/27 03:09:44;;;;;;;5.82;4.45;;;;;;;12.37;100.00;101995.47;5070701;28;20059;-64
2022/10/27 03:12:09;;;;;;;7.25;4.32;;;;;;;12.34;100.00;101995.34;5071053;28;20059;-64
2022/10/27 03:14:35;;;;;;;7.05;3.72;;;;;;;12.33;100.00;101993.56;5069127;28;20048;-64
2022/10/27 03:17:00;;;;;;;6.13;4.32;;;;;;;12.31;100.00;101987.41;5070752;28;20028;-64
2022/10/27 03:19:25;;;;;;;6.18;4.07;;;;;;;12.29;100.00;101986.44;5070271;28;20488;-64
2022/10/27 03:21:50;;;;;;;7.95;4.85;;;;;;;12.27;100.00;101985.50;5070774;28;20435;-64
2022/10/27 03:24:16;;;;;;;7.90;4.05;;;;;;;12.24;100.00;101984.53;5084000;28;20027;-64
2022/10/27 03:26:41;;;;;;;10.93;4.10;;;;;;;12.23;100.00;101987.94;5070388;28;20028;-64
2022/10/27 03:29:06;;;;;;;6.93;4.78;;;;;;;12.21;100.00;101979.22;5057855;28;20021;-64
2022/10/27 03:31:32;;;;;;;8.07;4.18;;;;;;;12.20;100.00;101990.41;5063310;28;20029;-66
2022/10/27 03:33:57;;;;;;;5.43;3.85;;;;;;;12.19;100.00;101977.38;5060667;28;20020;-67
2022/10/27 03:36:22;;;;;;;5.97;3.40;;;;;;;12.16;100.00;101975.50;5069741;28;20051;-63
2022/10/27 03:38:48;;;;;;;7.82;4.05;;;;;;;12.13;100.00;101978.88;5078676;28;20059;-64
2022/10/27 03:41:13;;;;;;;9.50;4.28;;;;;;;12.12;100.00;101979.69;5089880;28;20051;-64
2022/10/27 03:43:38;;;;;;;5.32;3.95;;;;;;;12.13;100.00;101975.38;5075624;28;20047;-64
2022/10/27 03:46:04;;;;;;;11.40;4.35;;;;;;;12.12;100.00;101971.03;5082692;28;20021;-64
2022/10/27 03:48:29;;;;;;;5.80;3.72;;;;;;;12.12;100.00;101971.88;5055677;28;20078;-64
2022/10/27 03:50:54;;;;;;;5.45;4.10;;;;;;;12.12;100.00;101971.03;5069532;28;20016;-64
2022/10/27 03:53:20;;;;;;;10.43;4.00;;;;;;;12.11;100.00;101969.22;5071364;28;20455;-64
2022/10/27 03:55:47;;;;;;;8.20;3.78;;;;;;;12.10;100.00;101970.97;5090196;28;20016;-64
2022/10/27 03:58:13;;;;;;;6.57;4.10;;;;;;;12.10;100.00;101970.06;5075582;28;20044;-64
2022/10/27 04:00:39;;;;;;;9.18;4.32;;;;;;;12.09;100.00;101970.81;5067370;28;20032;-64
2022/10/27 04:03:05;;;;;;;6.13;3.90;;;;;;;12.08;100.00;101967.38;5069729;28;20073;-64
2022/10/27 04:05:31;;;;;;;9.93;3.83;;;;;;;12.07;100.00;101962.97;5069453;28;20024;-64
2022/10/27 04:07:57;;;;;;;6.95;4.07;;;;;;;12.06;100.00;101968.09;5069282;28;20020;-64
2022/10/27 04:10:22;;;;;;;6.93;4.05;;;;;;;12.06;100.00;101968.09;5069680;28;20073;-64
2022/10/27 04:12:51;;;;;;;5.53;4.15;;;;;;;12.06;100.00;101973.31;5055860;28;20044;-64
2022/10/27 04:15:18;;;;;;;7.07;4.63;;;;;;;12.06;100.00;101974.19;5064945;28;20028;-64
2022/10/27 04:17:43;;;;;;;9.20;4.70;;;;;;;12.07;100.00;101980.28;5052623;28;20032;-64
2022/10/27 04:20:09;;;;;;;7.47;4.80;;;;;;;12.07;100.00;101977.69;5057966;28;20021;-64
2022/10/27 04:22:35;;;;;;;7.38;5.00;;;;;;;12.07;100.00;101988.94;5068523;28;20104;-64
2022/10/27 04:25:00;;;;;;;9.50;5.20;;;;;;;12.08;100.00;101997.63;5055625;28;20024;-63
2022/10/27 04:27:25;;;;;;;7.97;4.78;;;;;;;12.07;100.00;101993.28;5069200;28;20050;-63
2022/10/27 04:29:50;;;;;;;8.57;5.28;;;;;;;12.06;100.00;101994.09;5064170;28;20436;-64
2022/10/27 04:32:16;;;;;;;10.73;5.05;;;;;;;12.06;100.00;101994.09;5059343;28;20391;-64
2022/10/27 04:34:41;;;;;;;8.90;5.15;;;;;;;12.04;100.00;101990.53;5083465;28;20073;-63
2022/10/27 04:37:06;;;;;;;14.10;6.03;;;;;;;12.02;100.00;101987.88;5069256;28;20032;-64
2022/10/27 04:39:32;;;;;;;7.38;5.32;;;;;;;12.00;100.00;101990.41;5083138;28;20498;-64
2022/10/27 04:41:57;;;;;;;9.88;5.75;;;;;;;11.98;100.00;101994.63;5069274;28;20043;-64
2022/10/27 04:44:22;;;;;;;8.50;5.15;;;;;;;11.96;100.00;101998.88;5081123;28;20036;-64
2022/10/27 04:46:47;;;;;;;9.65;5.22;;;;;;;11.94;100.00;101997.03;5074068;28;20016;-64
2022/10/27 04:49:13;;;;;;;10.40;5.22;;;;;;;11.91;100.00;102002.97;5089587;28;20485;-64
2022/10/27 04:51:38;;;;;;;9.70;5.20;;;;;;;11.90;100.00;101996.00;5074632;28;20029;-64
2022/10/27 04:54:03;;;;;;;10.25;5.70;;;;;;;11.89;100.00;101996.84;5081069;28;20476;-64
2022/10/27 04:56:29;;;;;;;8.55;4.95;;;;;;;11.89;100.00;102002.03;5069074;28;20024;-64
2022/10/27 04:58:54;;;;;;;5.82;4.75;;;;;;;11.88;100.00;101997.63;5073084;28;20080;-64
2022/10/27 05:01:19;;;;;;;8.95;5.50;;;;;;;11.88;100.00;102000.25;5077201;28;20230;-64
2022/10/27 05:03:48;;;;;;;9.52;5.43;;;;;;;11.88;100.00;102000.25;5069050;28;20031;-64
2022/10/27 05:06:13;;;;;;;6.63;5.95;;;;;;;11.87;100.00;101998.47;5077168;28;20388;-64
2022/10/27 05:08:38;;;;;;;8.25;5.20;;;;;;;11.85;100.00;101997.50;5068369;28;20021;-64
2022/10/27 05:11:03;;;;;;;7.00;4.75;;;;;;;11.85;100.00;102000.09;5054785;28;20017;-64
2022/10/27 05:13:29;;;;;;;6.18;4.90;;;;;;;11.83;100.00;102000.03;5058061;28;20028;-64
2022/10/27 05:16:02;;;;;;;9.10;4.97;;;;;;;11.83;100.00;101999.16;5067131;28;20532;-64
2022/10/27 05:18:27;;;;;;;8.18;5.00;;;;;;;11.84;100.00;101993.13;5056917;28;20047;-64
2022/10/27 05:20:53;;;;;;;9.63;5.97;;;;;;;11.82;100.00;101993.06;5082490;28;20491;-64
2022/10/27 05:23:18;;;;;;;11.73;6.03;;;;;;;11.82;100.00;101987.84;5061664;28;20103;-64
2022/10/27 05:25:43;;;;;;;7.95;5.07;;;;;;;11.83;100.00;101986.16;5073306;28;20021;-64
2022/10/27 05:28:10;;;;;;;8.65;5.43;;;;;;;11.84;100.00;101993.13;5051031;28;20413;-64
2022/10/27 05:30:36;;;;;;;5.88;4.80;;;;;;;11.84;100.00;101994.00;5058899;28;20086;-64
2022/10/27 05:33:03;;;;;;;6.20;5.55;;;;;;;11.84;100.00;101993.13;5067526;28;20016;-64
2022/10/27 05:35:28;;;;;;;9.90;5.57;;;;;;;11.84;100.00;101991.41;5059318;28;20024;-64
2022/10/27 05:37:53;;;;;;;8.57;5.30;;;;;;;11.83;100.00;101992.25;5062357;28;20032;-64
2022/10/27 05:40:19;;;;;;;7.78;5.93;;;;;;;11.84;100.00;101993.13;5068203;28;20031;-64
2022/10/27 05:42:54;;;;;;;6.47;5.57;;;;;;;11.84;100.00;101988.81;5068164;28;20028;-64
2022/10/27 05:45:22;;;;;;;7.60;5.32;;;;;;;11.85;100.00;101994.91;5053733;28;20041;-64
2022/10/27 05:47:47;;;;;;;8.00;5.88;;;;;;;11.84;100.00;101994.00;5067209;28;20086;-64
2022/10/27 05:50:13;;;;;;;6.25;5.65;;;;;;;11.83;100.00;101992.25;5067712;28;20016;-64
2022/10/27 05:52:38;;;;;;;8.82;5.35;;;;;;;11.84;100.00;101987.91;5067894;28;20024;-64
2022/10/27 05:55:04;;;;;;;5.93;5.13;;;;;;;11.83;100.00;101986.16;5053783;28;20044;-64
2022/10/27 05:57:29;;;;;;;6.63;5.15;;;;;;;11.82;100.00;101984.41;5059764;28;20055;-64
2022/10/27 05:59:54;;;;;;;8.02;5.20;;;;;;;11.81;100.00;101987.78;5047927;28;20440;-64
2022/10/27 06:02:20;;;;;;;10.73;5.65;;;;;;;11.79;100.00;101984.22;5047343;28;20039;-64
2022/10/27 06:04:45;;;;;;;6.82;5.43;;;;;;;11.79;100.00;101979.94;5047153;28;20369;-64
2022/10/27 06:07:10;;;;;;;10.43;4.40;;;;;;;11.77;100.00;101982.47;5050492;28;20099;-64
2022/10/27 06:09:35;;;;;;;8.35;5.18;;;;;;;11.76;100.00;101980.66;5049328;28;20469;-63
2022/10/27 06:12:01;;;;;;;10.48;5.43;;;;;;;11.76;100.00;101982.41;5065441;28;20026;-64
2022/10/27 06:14:26;;;;;;;6.97;5.30;;;;;;;11.75;100.00;101984.09;5065443;28;20085;-64
2022/10/27 06:16:51;;;;;;;6.75;5.30;;;;;;;11.75;100.00;101978.91;5064333;28;20051;-64
2022/10/27 06:19:17;;;;;;;8.68;5.85;;;;;;;11.75;100.00;101978.91;5052910;28;20143;-64
2022/10/27 06:21:42;;;;;;;9.02;5.80;;;;;;;11.74;100.00;101966.75;5065397;28;20025;-64
2022/10/27 06:24:07;;;;;;;8.68;5.07;;;;;;;11.74;100.00;101966.75;5058434;28;20021;-64
2022/10/27 06:26:33;;;;;;;9.20;5.78;;;;;;;11.74;100.00;101971.94;5062013;28;20017;-64
2022/10/27 06:28:58;;;;;;;7.00;4.93;;;;;;;11.73;100.00;101959.75;5048362;28;20025;-64
2022/10/27 06:31:23;;;;;;;8.98;5.28;;;;;;;11.73;100.00;101964.97;5049595;28;20032;-64
2022/10/27 06:33:48;;;;;;;6.28;4.93;;;;;;;11.73;100.00;101964.97;5055198;28;20376;-64
2022/10/27 06:36:14;;;;;;;5.55;4.82;;;;;;;11.72;100.00;101963.19;5047805;28;20029;-64
2022/10/27 06:38:39;;;;;;;9.57;5.18;;;;;;;11.74;100.00;101963.25;5047329;28;20175;-64
2022/10/27 06:41:04;;;;;;;6.65;4.28;;;;;;;11.74;100.00;101960.66;5046707;28;20021;-64
2022/10/27 06:43:30;;;;;;;5.82;4.43;;;;;;;11.73;100.00;101954.56;5056609;28;20122;-64
2022/10/27 06:45:55;;;;;;;6.43;4.43;;;;;;;11.73;100.00;101958.88;5053518;28;20028;-64
2022/10/27 06:48:20;;;;;;;8.13;3.95;;;;;;;11.75;100.00;101963.31;5060995;28;20060;-64
2022/10/27 06:50:46;;;;;;;5.18;4.05;;;;;;;11.74;100.00;101961.56;5061912;28;20095;-64
2022/10/27 06:53:11;;;;;;;7.15;3.60;;;;;;;11.75;100.00;101958.13;5062363;28;20400;-64
2022/10/27 06:55:36;;;;;;;8.82;4.05;;;;;;;11.77;100.00;101961.69;5072733;28;20025;-64
2022/10/27 06:58:01;;;;;;;4.70;3.75;;;;;;;11.80;100.00;101963.53;5059273;28;20428;-65
2022/10/27 07:00:27;;;;;;;4.75;3.85;;;;;;;11.81;100.00;101946.25;5052304;28;20051;-64
2022/10/27 07:02:52;;;;;;;6.13;4.05;;;;;;;11.81;100.00;101946.25;5066526;28;20025;-64
2022/10/27 07:05:18;;;;;;;7.40;3.90;;;;;;;11.80;100.00;101934.97;5065812;28;20020;-64
2022/10/27 07:07:50;;;;;;;6.38;3.90;;;;;;;11.83;100.00;101942.91;5061075;28;20395;-64
2022/10/27 07:10:16;;;;;;;5.93;3.60;;;;;;;11.84;100.00;101943.78;5059760;28;20370;-64
2022/10/27 07:12:56;;;;;;;4.82;4.25;;;;;;;11.88;100.00;101950.88;5055797;28;20047;-64
2022/10/27 07:15:23;;;;;;;5.18;4.40;;;;;;;11.89;100.00;101950.94;5060092;28;20686;-64
2022/10/27 07:17:54;;;;;;;5.45;3.90;;;;;;;11.94;100.00;101953.78;5049636;28;20115;-64
2022/10/27 07:20:20;;;;;;;4.95;3.58;;;;;;;11.98;100.00;101957.41;5052565;28;20029;-64
2022/10/27 07:22:45;;;;;;;7.72;4.03;;;;;;;12.03;100.00;101955.00;5048035;28;20430;-63
2022/10/27 07:25:10;;;;;;;7.47;4.20;;;;;;;12.04;100.00;101955.06;5054066;28;20377;-64
2022/10/27 07:27:35;;;;;;;5.20;3.58;;;;;;;12.07;100.00;101956.91;5065533;28;20031;-64
2022/10/27 07:30:01;;;;;;;5.22;3.92;;;;;;;12.11;100.00;101956.22;5067144;28;20055;-64
2022/10/27 07:32:26;;;;;;;5.95;3.80;;;;;;;12.13;100.00;101954.59;5066087;28;20025;-64
2022/10/27 07:34:51;;;;;;;5.90;4.13;;;;;;;12.16;100.00;101949.53;5068784;28;20024;-64
2022/10/27 07:37:16;;;;;;;5.70;3.60;;;;;;;12.19;100.00;101953.97;5068492;28;20482;-64
2022/10/27 07:39:42;;;;;;;6.68;4.22;;;;;;;12.22;100.00;101948.91;5057706;28;20447;-64
2022/10/27 07:42:07;;;;;;;4.25;3.10;;;;;;;12.25;100.00;101952.53;5074701;28;20472;-64
2022/10/27 07:44:32;;;;;;;6.55;3.83;;;;;;;12.30;100.00;101950.16;5065417;28;20045;-64
2022/10/27 07:46:58;;;;;;;7.20;3.63;;;;;;;12.35;100.00;101948.63;5053728;28;20108;-64
2022/10/27 07:49:23;;;;;;;5.07;3.20;;;;;;;12.41;100.00;101947.97;5058360;28;20385;-64
2022/10/27 07:51:48;;;;;;;4.25;3.17;;;;;;;12.47;100.00;101955.13;5064463;28;20062;-63
2022/10/27 07:54:13;;;;;;;5.90;3.25;;;;;;;12.55;100.00;101963.28;5066404;28;20029;-64
2022/10/27 07:56:39;;;;;;;5.72;3.42;;;;;;;12.64;100.00;101957.56;5066253;28;20079;-64
2022/10/27 07:59:04;;;;;;;3.70;2.47;;;;;;;12.72;100.00;101970.06;5072069;28;20023;-64
2022/10/27 08:01:29;;;;;;;5.55;2.78;;;;;;;12.81;100.00;101966.03;5069846;28;20433;-63
2022/10/27 08:03:54;;;;;;;4.63;2.88;;;;;;;12.89;100.00;101964.66;5070231;28;20024;-64
2022/10/27 08:06:20;;;;;;;8.23;3.30;;;;;;;13.03;100.00;101965.22;5072750;28;20461;-64
2022/10/27 08:08:45;;;;;;;4.63;2.38;;;;;;;13.16;100.00;101961.38;5067560;28;20024;-64
2022/10/27 08:11:10;;;;;;;4.13;2.38;;;;;;;13.26;100.00;101956.56;5068389;28;20391;-64
2022/10/27 08:13:36;;;;;;;3.35;2.53;;;;;;;13.31;100.00;101958.47;5067581;28;20381;-64
2022/10/27 08:16:01;;;;;;;4.70;2.72;;;;;;;13.37;100.00;101956.94;5067432;28;20024;-64
2022/10/27 08:18:26;;;;;;;3.40;2.38;;;;;;;13.39;100.00;101958.78;5068456;28;20032;-64
2022/10/27 08:20:52;;;;;;;4.78;2.50;;;;;;;13.43;100.00;101958.09;5068064;28;20095;-64
2022/10/27 08:23:24;;;;;;;4.53;2.60;;;;;;;13.49;100.00;101956.53;5068982;28;20490;-64
2022/10/27 08:25:49;;;;;;;5.63;2.90;;;;;;;13.53;100.00;101941.09;5069005;28;20020;-64
2022/10/27 08:28:15;;;;;;;3.70;2.92;;;;;;;13.60;100.00;101933.53;5065138;28;20507;-64
2022/10/27 08:30:41;;;;;;;4.53;2.85;;;;;;;13.64;100.00;101951.94;5055973;28;20059;-64
2022/10/27 08:33:07;;;;;;;4.38;2.50;;;;;;;13.75;100.00;101948.81;5068915;28;20064;-64
2022/10/27 08:35:33;;;;;;;5.00;2.80;;;;;;;13.84;100.00;101948.25;5068728;28;20477;-64
2022/10/27 08:38:00;;;;;;;4.70;2.60;;;;;;;13.95;100.00;101946.03;5069129;28;20028;-64
2022/10/27 08:40:42;;;;;;;3.78;2.47;;;;;;;14.13;100.00;101946.72;5069132;28;20086;-64
2022/10/27 08:43:16;;;;;;;3.22;2.67;;;;;;;14.41;100.00;101952.88;5069137;28;20024;-64
2022/10/27 08:46:01;;;;;;;3.60;2.47;;;;;;;14.77;100.00;101945.31;5067808;28;20439;-64
2022/10/27 08:48:28;;;;;;;4.15;2.78;;;;;;;14.99;100.00;101946.94;5068055;28;20116;-64
2022/10/27 08:50:53;;;;;;;4.95;2.65;;;;;;;15.15;100.00;101941.31;5062192;28;20079;-64
2022/10/27 08:53:27;;;;;;;3.75;2.95;;;;;;;15.21;100.00;101931.03;5049124;28;20029;-64
2022/10/27 08:55:57;;;;;;;4.85;2.08;;;;;;;15.24;100.00;101931.13;5063012;28;20021;-64
2022/10/27 08:58:41;;;;;;;4.53;2.10;;;;;;;15.21;100.00;101931.94;5061237;28;20016;-63
2022/10/27 09:01:30;;;;;;;6.25;2.67;;;;;;;15.16;100.00;101923.06;5067994;28;20274;-64
2022/10/27 09:04:31;;;;;;;3.72;2.40;;;;;;;15.15;100.00;101925.66;5056207;28;20489;-64
2022/10/27 09:07:09;;;;;;;4.43;2.63;;;;;;;15.15;100.00;101915.19;5048150;28;20040;-63
2022/10/27 09:09:48;;;;;;;5.13;2.53;;;;;;;15.20;100.00;101905.78;5055449;28;20024;-64
2022/10/27 09:12:41;;;;;;;3.13;1.73;;;;;;;15.23;100.00;101903.25;5068841;28;20020;-63
2022/10/27 09:15:09;;;;;;;4.35;1.83;;;;;;;15.28;100.00;101912.09;5050077;28;20040;-64
2022/10/27 09:17:47;;;;;;;4.43;2.00;;;;;;;15.31;100.00;101896.50;5053962;28;20361;-64
2022/10/27 09:20:37;;;;;;;2.88;1.63;;;;;;;15.38;100.00;101908.03;5068428;28;20476;-64
2022/10/27 09:23:05;;;;;;;4.78;1.92;;;;;;;15.42;100.00;101894.22;5068225;28;20024;-64
2022/10/27 09:25:32;;;;;;;3.15;1.60;;;;;;;15.48;100.00;101903.97;5068219;28;20101;-64
2022/10/27 09:27:59;;;;;;;4.57;1.55;;;;;;;15.54;100.00;101891.06;5054297;28;20090;-64
2022/10/27 09:30:31;;;;;;;3.33;1.77;;;;;;;15.61;100.00;101895.63;5068226;28;20020;-64
2022/10/27 09:32:56;;;;;;;3.58;1.30;;;;;;;15.67;100.00;101894.91;5065990;28;20031;-64
2022/10/27 09:35:24;;;;;;;3.10;1.38;;;;;;;15.74;100.00;101885.50;5060494;28;20024;-64
2022/10/27 09:37:51;;;;;;;1.67;1.10;;;;;;;15.80;100.00;101877.84;5075957;28;20020;-64
2022/10/27 09:40:22;;;;;;;3.90;1.50;;;;;;;15.85;100.00;101878.84;5067787;28;20062;-64
2022/10/27 09:42:52;;;;;;;3.70;1.60;;;;;;;15.93;100.00;101881.69;5054731;28;20107;-64
2022/10/27 09:45:21;;;;;;;3.03;1.10;;;;;;;16.00;100.00;101879.25;5052831;28;20515;-64
2022/10/27 09:47:49;;;;;;;2.17;1.55;;;;;;;16.07;100.00;101882.06;5067697;28;20032;-64
2022/10/27 09:50:22;;;;;;;3.22;1.50;;;;;;;16.14;100.00;101871.75;5053395;28;20081;-64
2022/10/27 09:52:47;;;;;;;3.20;1.33;;;;;;;16.17;100.00;101864.00;5056852;28;20033;-64
2022/10/27 09:55:14;;;;;;;2.75;1.45;;;;;;;16.20;100.00;101864.97;5067129;28;20498;-64
2022/10/27 09:57:41;;;;;;;5.55;1.65;;;;;;;16.26;100.00;101864.19;5085636;28;20035;-64
2022/10/27 10:00:23;;;;;;;1.80;1.38;;;;;;;16.33;100.00;101867.88;5087763;28;20397;-64
2022/10/27 10:03:02;;;;;;;5.43;1.65;;;;;;;16.38;100.00;101867.97;5055038;28;20496;-64
2022/10/27 10:05:36;;;;;;;3.70;1.77;;;;;;;16.44;100.00;101881.22;5081595;28;20388;-64
2022/10/27 10:08:17;;;;;;;3.03;1.70;;;;;;;16.52;100.00;101881.38;5066889;28;20024;-64
2022/10/27 10:10:56;;;;;;;1.65;1.20;;;;;;;16.59;100.00;101877.16;5067506;28;20032;-64
2022/10/27 10:13:22;;;;;;;3.42;1.52;;;;;;;16.65;100.00;101867.75;5059169;28;20299;-64
2022/10/27 10:16:04;;;;;;;1.98;1.15;;;;;;;16.72;100.00;101865.25;5063939;28;20083;-64
2022/10/27 10:18:31;;;;;;;4.97;1.25;;;;;;;16.78;100.00;101849.72;5058584;28;20090;-64
2022/10/27 10:21:08;;;;;;;2.65;1.15;;;;;;;16.89;100.00;101856.06;5060724;28;20040;-64
2022/10/27 10:23:50;;;;;;;3.05;1.50;;;;;;;16.97;100.00;101858.84;5054741;28;20029;-64
2022/10/27 10:26:17;;;;;;;3.97;1.30;;;;;;;17.05;100.00;101857.25;5065732;28;20374;-64
2022/10/27 10:28:43;;;;;;;3.33;1.17;;;;;;;17.14;100.00;101863.59;5067288;28;20104;-63
2022/10/27 10:31:13;;;;;;;3.35;1.05;;;;;;;17.18;100.00;101847.06;5079733;28;20032;-64
2022/10/27 10:33:43;;;;;;;2.45;1.10;;;;;;;17.23;100.00;101850.69;5066210;28;20078;-64
2022/10/27 10:36:35;;;;;;;3.20;1.20;;;;;;;17.26;100.00;101857.72;5066809;28;20029;-64
2022/10/27 10:39:00;;;;;;;;;;;;;;;17.28;99.17;101856.91;5067709;28;20021;-64
2022/10/27 10:41:27;;;;;;;3.13;1.30;;;;;;;17.33;98.78;101856.09;5067148;28;20013;-64
2022/10/27 10:44:13;;;;;;;2.95;1.38;;;;;;;17.37;98.76;101852.69;5059906;28;20087;-64
2022/10/27 10:46:52;;;;;;;3.17;1.00;;;;;;;17.41;99.02;101838.81;5062827;28;20025;-64
2022/10/27 10:49:22;;;;;;;2.75;1.02;;;;;;;17.43;98.40;101826.59;5067272;28;20123;-64
2022/10/27 10:51:53;;;;;;;8.23;1.48;;;;;;;17.49;97.53;101836.31;5065595;28;20033;-64
2022/10/27 10:54:27;;;;;;;3.67;1.02;;;;;;;17.54;98.80;101829.44;5067181;28;20039;-64
2022/10/27 10:56:54;;;;;;;1.67;0.90;;;;;;;17.61;98.26;101825.22;5064448;28;20028;-64
2022/10/27 10:59:24;;;;;;;2.50;1.00;;;;;;;17.66;99.25;101823.56;5066737;28;20020;-64
2022/10/27 11:01:52;;;;;;;3.30;1.33;;;;;;;17.72;98.35;101828.03;5065529;28;20463;-67
2022/10/27 11:04:20;;;;;;;7.07;1.52;;;;;;;17.77;98.03;101823.75;5066653;28;20418;-64
2022/10/27 11:07:00;;;;;;;3.30;1.08;;;;;;;17.80;97.20;101822.91;5077458;28;20020;-64
2022/10/27 11:09:32;;;;;;;3.17;1.20;;;;;;;17.82;98.96;101827.34;5068109;28;20492;-64
2022/10/27 11:11:59;;;;;;;2.60;1.10;;;;;;;17.85;96.89;101827.38;5071291;28;20063;-64
2022/10/27 11:14:27;;;;;;;2.00;1.17;;;;;;;17.87;96.85;101823.03;5069287;28;20031;-64
2022/10/27 11:16:57;;;;;;;3.13;1.23;;;;;;;17.93;98.41;101832.75;5071006;28;20036;-64
2022/10/27 11:19:23;;;;;;;5.15;1.52;;;;;;;17.97;97.08;101833.69;5084302;28;20043;-64
2022/10/27 11:22:00;;;;;;;4.38;1.20;;;;;;;18.02;97.30;101834.66;5079183;28;20020;-64
2022/10/27 11:24:35;;;;;;;6.07;1.35;;;;;;;18.04;98.49;101826.81;5089263;28;20035;-64
2022/10/27 11:27:14;;;;;;;5.13;1.20;;;;;;;18.06;97.74;101817.22;5070801;28;20073;-64